Time;durP1;ratioP1;P1;durP2;ratioP2;P2;SDS_P1;SDS_P2;PMS_P1;PMS_P2;Temp;Humidity;BMP_temperature;BMP_pressure;BME280_temperature;BME280_humidity;BME280_pressure;Samples;Min_cycle;Max_cycle;Signal;HPM_P1;HPM_P2
2023/10/16 00:00:30;;;;;;;;;;;;;;;15.21;64.85;94939.97;5135836;27;1032;-56
2023/10/16 00:02:59;;;;;;;;;;;;;;;15.19;65.04;94947.41;5136045;27;1095;-55
2023/10/16 00:05:28;;;;;;;;;;;;;;;15.21;65.08;94945.34;5117746;27;969;-56
2023/10/16 00:07:56;;;;;;;;;;;;;;;15.12;65.35;94941.97;5135794;27;1079;-56
2023/10/16 00:10:25;;;;;;;;;;;;;;;15.22;64.11;94955.94;5135797;27;1210;-56
2023/10/16 00:12:51;;;;;;;;;;;;;;;15.17;64.19;94962.91;5135673;27;1092;-56
2023/10/16 00:15:17;;;;;;;;;;;;;;;15.20;64.22;94976.00;5135868;27;956;-56
2023/10/16 00:17:43;;;;;;;;;;;;;;;15.25;64.47;94976.22;5135824;27;1035;-56
2023/10/16 00:20:14;;;;;;;;;;;;;;;15.11;65.47;94972.59;5135788;27;1031;-56
2023/10/16 00:22:43;;;;;;;;;;;;;;;15.13;65.25;94985.88;5135705;27;1007;-56
2023/10/16 00:25:10;;;;;;;;;;;;;;;15.13;63.63;94981.31;5135455;27;1091;-56
2023/10/16 00:27:38;;;;;;;;;;;;;;;15.05;63.08;94991.41;5135291;27;1917;-56
2023/10/16 00:30:07;;;;;;;;;;;;;;;15.02;62.79;95001.53;5135522;27;986;-56
2023/10/16 00:32:36;;;;;;;;;;;;;;;14.95;62.33;94994.38;5135009;27;1040;-56
2023/10/16 00:35:08;;;;;;;;;;;;;;;14.89;62.69;95004.09;5135439;27;957;-56
2023/10/16 00:37:34;;;;;;;;;;;;;;;14.88;62.75;95021.25;5135138;27;1048;-56
2023/10/16 00:40:10;;;;;;;;;;;;;;;14.81;62.47;95013.09;5135139;27;1036;-56
2023/10/16 00:42:43;;;;;;;;;;;;;;;14.68;61.82;95018.34;5135112;27;1036;-56
2023/10/16 00:45:09;;;;;;;;;;;;;;;14.64;61.92;95025.13;5135432;27;1063;-56
2023/10/16 00:47:39;;;;;;;;;;;;;;;14.60;61.64;95027.34;5135226;27;1996;-56
2023/10/16 00:50:06;;;;;;;;;;;;;;;14.45;62.04;95034.59;5124808;27;1141;-56
2023/10/16 00:52:32;;;;;;;;;;;;;;;14.44;62.10;95041.84;5114380;28;1139;-56
2023/10/16 00:54:58;;;;;;;;;;;;;;;14.40;61.38;95050.47;5114265;28;1029;-56
2023/10/16 00:57:27;;;;;;;;;;;;;;;14.34;61.58;95043.13;5114561;28;1309;-56
2023/10/16 00:59:53;;;;;;;;;;;;;;;14.31;61.73;95040.84;5114195;28;1032;-56
2023/10/16 01:02:26;;;;;;;;;;;;;;;14.37;61.16;95053.53;5114309;28;1052;-56
2023/10/16 01:04:52;;;;;;;;;;;;;;;14.35;60.98;95064.47;5114323;28;969;-56
2023/10/16 01:07:19;;;;;;;;;;;;;;;14.29;61.05;95059.84;5114024;28;1933;-56
2023/10/16 01:09:50;;;;;;;;;;;;;;;14.28;60.93;95060.03;5113995;28;1032;-56
2023/10/16 01:12:16;;;;;;;;;;;;;;;14.27;61.04;95067.25;5114285;28;1055;-56
2023/10/16 01:14:42;;;;;;;;;;;;;;;14.16;60.73;95071.25;5114064;28;1040;-56
2023/10/16 01:17:09;;;;;;;;;;;;;;;14.17;60.21;95077.44;5114180;28;981;-56
2023/10/16 01:19:36;;;;;;;;;;;;;;;14.20;60.38;95082.47;5114283;28;1166;-56
2023/10/16 01:22:02;;;;;;;;;;;;;;;14.20;59.59;95095.91;5113936;28;1044;-56
2023/10/16 01:24:29;;;;;;;;;;;;;;;14.18;59.80;95088.03;5113827;28;1051;-56
2023/10/16 01:27:06;;;;;;;;;;;;;;;14.09;59.31;95074.84;5113834;28;1993;-56
2023/10/16 01:29:33;;;;;;;;;;;;;;;14.05;59.31;95088.66;5113947;28;1034;-56
2023/10/16 01:31:59;;;;;;;;;;;;;;;14.00;58.81;95085.72;5114133;28;1016;-56
2023/10/16 01:34:25;;;;;;;;;;;;;;;14.02;58.84;95091.72;5114085;28;1059;-56
2023/10/16 01:36:51;;;;;;;;;;;;;;;14.09;58.80;95093.69;5114080;28;1051;-56
2023/10/16 01:42:04;;;;;;;;;;;;;;;13.92;59.65;95106.44;5114723;28;969;-56
2023/10/16 01:44:30;;;;;;;;;;;;;;;13.97;58.82;95120.19;5118049;28;1012;-56
2023/10/16 01:46:57;;;;;;;;;;;;;;;13.86;58.78;95116.06;5117987;28;1897;-56
2023/10/16 01:49:24;;;;;;;;;;;;;;;13.78;59.42;95126.91;5122180;27;1150;-56
2023/10/16 01:51:53;;;;;;;;;;;;;;;13.83;58.99;95132.56;5138489;27;1145;-56
2023/10/16 01:54:22;;;;;;;;;;;;;;;13.77;59.62;95125.22;5138233;27;1079;-56
2023/10/16 01:56:49;;;;;;;;;;;;;;;13.79;59.17;95133.94;5138615;27;1004;-56
2023/10/16 01:59:15;;;;;;;;;;;;;;;13.87;58.98;95133.88;5138312;27;1102;-56
2023/10/16 02:01:42;;;;;;;;;;;;;;;13.79;59.39;95145.53;5138227;27;1024;-56
2023/10/16 02:04:08;;;;;;;;;;;;;;;13.73;59.28;95148.09;5138088;27;1294;-56
2023/10/16 02:06:34;;;;;;;;;;;;;;;13.62;59.52;95154.72;5138262;27;1909;-56
2023/10/16 02:09:00;;;;;;;;;;;;;;;13.44;60.68;95153.19;5138422;27;1015;-56
2023/10/16 02:11:26;;;;;;;;;;;;;;;13.46;60.35;95161.91;5137926;27;1036;-56
2023/10/16 02:13:52;;;;;;;;;;;;;;;13.58;59.77;95164.16;5138320;27;1205;-56
2023/10/16 02:16:18;;;;;;;;;;;;;;;13.55;59.27;95172.59;5137921;27;1059;-56
2023/10/16 02:18:46;;;;;;;;;;;;;;;13.48;59.97;95178.66;5138115;27;996;-56
2023/10/16 02:21:13;;;;;;;;;;;;;;;13.44;59.53;95185.41;5138050;27;1079;-56
2023/10/16 02:23:39;;;;;;;;;;;;;;;13.41;59.34;95180.41;5138116;27;1041;-56
2023/10/16 02:26:09;;;;;;;;;;;;;;;13.40;59.27;95194.84;5137742;27;1910;-56
2023/10/16 02:28:36;;;;;;;;;;;;;;;13.40;59.43;95197.53;5137991;27;1115;-56
2023/10/16 02:31:10;;;;;;;;;;;;;;;13.44;59.56;95188.09;5137952;27;1051;-56
2023/10/16 02:33:36;;;;;;;;;;;;;;;13.33;59.13;95198.41;5137861;27;963;-55
2023/10/16 02:36:03;;;;;;;;;;;;;;;13.20;59.32;95201.63;5137848;27;965;-56
2023/10/16 02:38:29;;;;;;;;;;;;;;;13.11;58.64;95211.59;5137404;27;1020;-56
2023/10/16 02:41:00;;;;;;;;;;;;;;;13.01;59.00;95216.31;5137520;27;993;-56
2023/10/16 02:43:27;;;;;;;;;;;;;;;12.95;58.45;95225.06;5137392;27;1043;-55
2023/10/16 02:45:53;;;;;;;;;;;;;;;12.91;58.47;95237.16;5137304;27;1987;-55
2023/10/16 02:48:20;;;;;;;;;;;;;;;13.01;58.06;95243.16;5137273;27;1028;-55
2023/10/16 02:50:56;;;;;;;;;;;;;;;13.02;58.18;95248.34;5121259;27;1153;-55
2023/10/16 02:53:27;;;;;;;;;;;;;;;13.01;58.11;95259.25;5116622;28;968;-55
2023/10/16 02:55:57;;;;;;;;;;;;;;;12.91;58.16;95254.09;5116344;28;1003;-55
2023/10/16 02:58:28;;;;;;;;;;;;;;;12.77;58.81;95265.56;5116375;28;952;-56
2023/10/16 03:01:06;;;;;;;;;;;;;;;12.65;59.21;95276.66;5116697;28;1012;-56
2023/10/16 03:03:32;;;;;;;;;;;;;;;12.70;59.31;95279.66;5116577;28;1099;-55
2023/10/16 03:05:59;;;;;;;;;;;;;;;12.61;59.35;95275.28;5116472;28;1909;-55
2023/10/16 03:08:32;;;;;;;;;;;;;;;12.58;59.81;95289.06;5116221;28;1056;-55
2023/10/16 03:10:59;;;;;;;;;;;;;;;12.61;58.66;95293.25;5116524;28;964;-55
2023/10/16 03:13:25;;;;;;;;;;;;;;;12.57;59.37;95310.69;5116331;28;992;-55
2023/10/16 03:15:59;;;;;;;;;;;;;;;12.46;59.39;95290.41;5116181;28;1048;-55
2023/10/16 03:18:25;;;;;;;;;;;;;;;12.64;57.85;95295.59;5116197;28;1020;-54
2023/10/16 03:23:43;;;;;;;;;;;;;;;12.58;58.18;95289.06;5115924;28;1068;-55
2023/10/16 03:26:18;;;;;;;;;;;;;;;12.49;58.46;95306.19;5115916;28;1914;-55
2023/10/16 03:28:44;;;;;;;;;;;;;;;12.47;57.66;95316.22;5116249;28;995;-56
2023/10/16 03:31:11;;;;;;;;;;;;;;;12.38;57.91;95311.88;5115861;28;1000;-56
2023/10/16 03:33:38;;;;;;;;;;;;;;;12.35;57.51;95313.06;5116111;28;1047;-55
2023/10/16 03:36:04;;;;;;;;;;;;;;;12.37;57.45;95316.41;5115769;28;976;-55
2023/10/16 03:38:36;;;;;;;;;;;;;;;12.32;57.16;95317.91;5115887;28;961;-56
2023/10/16 03:41:11;;;;;;;;;;;;;;;12.35;56.98;95322.94;5115771;28;1041;-56
2023/10/16 03:43:41;;;;;;;;;;;;;;;12.39;56.64;95329.66;5115678;28;1964;-55
2023/10/16 03:46:10;;;;;;;;;;;;;;;12.47;56.72;95337.69;5115612;28;1996;-55
2023/10/16 03:48:38;;;;;;;;;;;;;;;12.41;57.04;95338.38;5115758;28;1017;-55
2023/10/16 03:51:08;;;;;;;;;;;;;;;12.37;56.44;95334.31;5134306;27;1196;-55
2023/10/16 03:53:35;;;;;;;;;;;;;;;12.43;56.26;95331.00;5135956;27;1028;-55
2023/10/16 03:56:07;;;;;;;;;;;;;;;12.35;56.24;95331.84;5135964;27;1873;-54
2023/10/16 03:58:41;;;;;;;;;;;;;;;12.34;56.64;95319.41;5135930;27;1857;-55
2023/10/16 04:01:07;;;;;;;;;;;;;;;12.35;56.38;95330.97;5136129;27;1068;-55
2023/10/16 04:03:46;;;;;;;;;;;;;;;12.38;57.20;95322.59;5136040;27;1064;-55
2023/10/16 04:06:19;;;;;;;;;;;;;;;12.44;56.00;95327.28;5134909;27;1989;-55
2023/10/16 04:08:47;;;;;;;;;;;;;;;12.45;55.95;95335.16;5135813;27;1059;-56
2023/10/16 04:11:17;;;;;;;;;;;;;;;12.35;56.34;95339.00;5135905;27;1051;-55
2023/10/16 04:13:48;;;;;;;;;;;;;;;12.23;57.19;95343.88;5135926;27;1055;-56
2023/10/16 04:16:30;;;;;;;;;;;;;;;12.21;57.37;95344.03;5135810;27;1043;-55
2023/10/16 04:21:43;;;;;;;;;;;;;;;12.22;56.50;95351.09;5135791;27;974;-55
2023/10/16 04:26:57;;;;;;;;;;;;;;;12.07;56.32;95358.09;5135282;27;1914;-56
2023/10/16 04:29:28;;;;;;;;;;;;;;;12.07;56.74;95360.78;5135357;27;1130;-56
2023/10/16 04:31:58;;;;;;;;;;;;;;;12.07;56.25;95353.59;5135282;27;1063;-55
2023/10/16 04:51:09;;;;;;;;;;;;;;;11.78;57.70;95387.97;5122814;27;1213;-55
2023/10/16 04:53:21;;;;;;;;;;;;;;;11.73;58.09;95393.81;5113036;28;1604;-56
2023/10/16 05:11:57;;;;;;;;;;;;;;;11.97;57.22;95435.13;5114079;28;1092;-55
2023/10/16 05:22:03;;;;;;;;;;;;;;;11.85;57.07;95466.69;5114283;28;988;-55
2023/10/16 06:14:13;;;;;;;;;;;;;;;12.02;55.46;95554.22;5113448;28;1103;-55
2023/10/16 06:16:41;;;;;;;;;;;;;;;11.97;55.57;95551.19;5113813;28;1011;-55
2023/10/16 06:19:14;;;;;;;;;;;;;;;12.01;54.38;95551.69;5113507;28;1015;-55
2023/10/16 06:21:46;;;;;;;;;;;;;;;12.03;54.71;95552.41;5113323;28;1052;-54
2023/10/16 06:24:32;;;;;;;;;;;;;;;12.03;54.08;95563.94;5113387;28;941;-55
2023/10/16 06:27:08;;;;;;;;;;;;;;;11.98;53.53;95562.75;5113074;28;2268;-55
2023/10/16 06:29:35;;;;;;;;;;;;;;;12.02;53.13;95575.66;5114802;28;905;-55
2023/10/16 06:32:06;;;;;;;;;;;;;;;11.93;53.57;95565.06;5117226;28;1036;-55
2023/10/16 06:34:33;;;;;;;;;;;;;;;11.87;54.18;95575.38;5117098;28;1024;-55
2023/10/16 06:37:05;;;;;;;;;;;;;;;12.08;54.72;95577.72;5117041;28;1048;-54
2023/10/16 06:39:35;;;;;;;;;;;;;;;12.25;53.18;95583.13;5117042;28;969;-55
2023/10/16 06:42:02;;;;;;;;;;;;;;;12.28;53.05;95578.31;5116771;28;1048;-55
2023/10/16 06:44:29;;;;;;;;;;;;;;;12.50;52.54;95579.56;5116926;28;984;-55
2023/10/16 06:46:58;;;;;;;;;;;;;;;12.62;52.51;95572.06;5116931;28;1917;-55
2023/10/16 06:49:28;;;;;;;;;;;;;;;12.62;51.39;95581.97;5116545;28;1213;-55
2023/10/16 06:51:56;;;;;;;;;;;;;;;12.59;50.89;95582.28;5116625;28;1244;-55
2023/10/16 06:54:24;;;;;;;;;;;;;;;12.42;50.94;95592.09;5116425;28;1056;-55
2023/10/16 06:56:50;;;;;;;;;;;;;;;12.31;50.66;95595.91;5116411;28;1037;-55
2023/10/16 06:59:18;;;;;;;;;;;;;;;12.39;50.60;95593.28;5116367;28;925;-55
2023/10/16 07:01:46;;;;;;;;;;;;;;;12.65;50.00;95593.19;5116499;28;988;-55
2023/10/16 07:04:14;;;;;;;;;;;;;;;13.34;48.27;95601.06;5116300;28;1052;-55
2023/10/16 07:06:42;;;;;;;;;;;;;;;13.88;47.57;95600.50;5116317;28;1906;-55
2023/10/16 07:09:09;;;;;;;;;;;;;;;14.43;45.84;95609.63;5116195;28;1028;-56
2023/10/16 07:11:35;;;;;;;;;;;;;;;14.77;45.57;95619.25;5116510;28;1067;-56
2023/10/16 07:14:01;;;;;;;;;;;;;;;14.91;44.02;95613.16;5116114;28;1024;-56
2023/10/16 07:16:28;;;;;;;;;;;;;;;15.01;43.21;95621.81;5116002;28;1052;-56
2023/10/16 07:18:57;;;;;;;;;;;;;;;15.05;42.75;95619.63;5115988;28;1019;-55
2023/10/16 07:21:25;;;;;;;;;;;;;;;15.55;42.22;95620.13;5116160;28;1056;-55
2023/10/16 07:23:53;;;;;;;;;;;;;;;15.81;41.95;95615.22;5133381;27;2490;-55
2023/10/16 07:26:19;;;;;;;;;;;;;;;15.59;41.76;95621.44;5134800;27;2500;-55
2023/10/16 07:28:48;;;;;;;;;;;;;;;15.63;41.73;95622.75;5136767;27;1048;-56
2023/10/16 07:31:16;;;;;;;;;;;;;;;15.77;42.02;95619.28;5136419;27;1285;-55
2023/10/16 07:33:46;;;;;;;;;;;;;;;16.06;41.74;95617.69;5136444;27;1042;-55
2023/10/16 07:36:12;;;;;;;;;;;;;;;16.25;40.41;95628.97;5136321;27;954;-56
2023/10/16 07:38:39;;;;;;;;;;;;;;;16.38;40.00;95639.94;5136200;27;981;-56
2023/10/16 07:41:09;;;;;;;;;;;;;;;16.29;40.62;95624.88;5136219;27;1014;-56
2023/10/16 07:43:36;;;;;;;;;;;;;;;16.36;41.18;95623.94;5136139;27;1025;-56
2023/10/16 07:48:45;;;;;;;;;;;;;;;16.88;39.70;95627.56;5135135;27;2473;-55
2023/10/16 07:51:12;;;;;;;;;;;;;;;16.89;38.69;95644.63;5136121;27;1161;-56
2023/10/16 07:53:38;;;;;;;;;;;;;;;16.75;39.20;95633.63;5135964;27;992;-55
2023/10/16 07:59:09;;;;;;;;;;;;;;;17.07;39.12;95636.94;5101319;27;1431;-56
2023/10/16 08:01:45;;;;;;;;;;;;;;;17.36;38.37;95635.22;5135862;27;1055;-56
2023/10/16 08:06:57;;;;;;;;;;;;;;;17.41;37.18;95643.56;5135925;27;2008;-56
2023/10/16 08:11:57;;;;;;;;;;;;;;;17.49;36.62;95646.16;5135648;27;1047;-56
2023/10/16 08:14:26;;;;;;;;;;;;;;;17.19;37.51;95631.91;5135778;27;968;-56
2023/10/16 08:17:14;;;;;;;;;;;;;;;17.45;36.44;95638.59;5134126;27;2487;-56
2023/10/16 08:19:39;;;;;;;;;;;;;;;17.76;36.98;95646.41;5135288;27;1118;-55
2023/10/16 08:22:07;;;;;;;;;;;;;;;17.76;37.19;95631.03;5135469;27;1025;-56
2023/10/16 08:24:34;;;;;;;;;;;;;;;17.85;37.24;95633.59;5135486;27;983;-56
2023/10/16 08:30:17;;;;;;;;;;;;;;;18.02;36.29;95647.69;5100541;27;1252;-54
2023/10/16 08:35:19;;;;;;;;;;;;;;;18.18;35.01;95647.44;5135373;27;970;-56
2023/10/16 08:37:56;;;;;;;;;;;;;;;17.99;36.14;95651.63;5135061;27;1040;-56
2023/10/16 08:40:26;;;;;;;;;;;;;;;17.86;35.40;95656.94;5134998;27;1040;-56
2023/10/16 08:43:07;;;;;;;;;;;;;;;17.90;37.00;95644.69;5135061;27;985;-55
2023/10/16 08:45:34;;;;;;;;;;;;;;;17.91;35.64;95649.09;5134870;27;1007;-55
2023/10/16 08:48:05;;;;;;;;;;;;;;;17.75;36.50;95656.38;5134839;27;1909;-56
2023/10/16 08:50:41;;;;;;;;;;;;;;;17.75;35.75;95650.97;5102855;28;1117;-56
2023/10/16 08:53:32;;;;;;;;;;;;;;;17.78;35.96;95649.75;5113744;28;1032;-56
2023/10/16 08:56:03;;;;;;;;;;;;;;;18.14;35.88;95643.44;5114254;28;1024;-55
2023/10/16 08:58:49;;;;;;;;;;;;;;;18.28;35.65;95645.19;5114426;28;1052;-55
2023/10/16 09:01:16;;;;;;;;;;;;;;;18.34;34.83;95652.56;5114292;28;949;-56
2023/10/16 09:03:56;;;;;;;;;;;;;;;18.25;34.99;95644.75;5114426;28;1056;-55
2023/10/16 09:06:25;;;;;;;;;;;;;;;18.29;34.43;95637.94;5113845;28;1905;-56
2023/10/16 09:08:54;;;;;;;;;;;;;;;18.16;35.97;95643.25;5114076;28;1103;-56
2023/10/16 09:11:20;;;;;;;;;;;;;;;18.30;35.45;95639.59;5113924;28;1103;-55
2023/10/16 09:13:51;;;;;;;;;;;;;;;18.39;34.39;95651.94;5114214;28;1028;-56
2023/10/16 09:16:21;;;;;;;;;;;;;;;18.31;34.56;95650.22;5113929;28;1008;-55
2023/10/16 09:18:47;;;;;;;;;;;;;;;18.38;35.13;95644.84;5113846;28;968;-55
2023/10/16 09:21:13;;;;;;;;;;;;;;;18.10;34.96;95636.75;5113881;28;945;-56
2023/10/16 09:23:51;;;;;;;;;;;;;;;18.07;34.95;95643.38;5113856;28;1106;-55
2023/10/16 09:26:32;;;;;;;;;;;;;;;18.24;35.61;95626.84;5117984;27;2001;-56
2023/10/16 09:29:04;;;;;;;;;;;;;;;18.21;35.33;95638.06;5134402;27;1013;-56
2023/10/16 09:31:31;;;;;;;;;;;;;;;18.60;33.91;95647.50;5134468;27;959;-55
2023/10/16 09:33:57;;;;;;;;;;;;;;;18.21;34.26;95635.34;5134271;28;1024;-55
2023/10/16 09:36:29;;;;;;;;;;;;;;;18.22;35.11;95623.50;5134194;28;1023;-55
2023/10/16 09:38:59;;;;;;;;;;;;;;;18.51;34.44;95636.81;5134594;28;1033;-54
2023/10/16 09:44:09;;;;;;;;;;;;;;;18.38;34.57;95631.31;5134141;28;1173;-55
2023/10/16 09:49:13;;;;;;;;;;;;;;;18.59;34.82;95621.44;5134326;28;1157;-55
2023/10/16 09:51:45;;;;;;;;;;;;;;;18.88;33.71;95621.22;5134461;28;1046;-56
2023/10/16 09:54:14;;;;;;;;;;;;;;;18.75;34.45;95614.88;5134163;28;969;-56
2023/10/16 09:56:44;;;;;;;;;;;;;;;18.50;34.81;95612.66;5134022;28;1036;-56
2023/10/16 09:59:18;;;;;;;;;;;;;;;18.45;33.83;95598.88;5134577;28;981;-56
2023/10/16 10:01:45;;;;;;;;;;;;;;;18.52;33.87;95607.88;5134216;28;1060;-55
2023/10/16 10:04:17;;;;;;;;;;;;;;;18.42;33.69;95601.97;5136542;27;957;-55
2023/10/16 10:06:46;;;;;;;;;;;;;;;18.36;33.32;95603.59;5137964;27;1905;-56
2023/10/16 10:11:47;;;;;;;;;;;;;;;18.34;33.30;95590.28;5138240;27;954;-56
2023/10/16 10:14:26;;;;;;;;;;;;;;;18.34;32.95;95587.59;5138067;27;1032;-55
2023/10/16 10:16:57;;;;;;;;;;;;;;;18.44;32.96;95589.06;5138056;27;957;-55
2023/10/16 10:19:36;;;;;;;;;;;;;;;18.50;32.70;95585.59;5138013;27;988;-55
2023/10/16 10:22:06;;;;;;;;;;;;;;;18.42;32.31;95589.28;5137835;27;1020;-56
2023/10/16 10:24:34;;;;;;;;;;;;;;;18.38;33.14;95588.00;5137681;27;1103;-56
2023/10/16 10:27:04;;;;;;;;;;;;;;;18.50;32.85;95583.72;5137648;27;1914;-56
2023/10/16 10:29:30;;;;;;;;;;;;;;;18.56;33.36;95581.25;5136336;27;2491;-56
2023/10/16 10:32:05;;;;;;;;;;;;;;;18.38;32.87;95581.75;5137613;27;981;-56
2023/10/16 10:34:31;;;;;;;;;;;;;;;18.27;32.75;95581.28;5137817;27;1024;-56
2023/10/16 10:37:00;;;;;;;;;;;;;;;18.29;33.49;95576.50;5137791;27;995;-56
2023/10/16 10:42:03;;;;;;;;;;;;;;;18.45;32.02;95585.34;5137679;27;999;-56
2023/10/16 10:44:33;;;;;;;;;;;;;;;18.47;32.28;95584.09;5137287;27;1044;-55
2023/10/16 10:47:05;;;;;;;;;;;;;;;18.48;31.41;95584.97;5137581;27;1906;-56
2023/10/16 10:49:34;;;;;;;;;;;;;;;18.58;32.49;95571.88;5137303;27;1220;-55
2023/10/16 10:52:01;;;;;;;;;;;;;;;18.54;32.11;95576.03;5137355;27;960;-55
2023/10/16 10:54:27;;;;;;;;;;;;;;;18.25;32.69;95574.38;5137172;27;944;-56
2023/10/16 10:56:59;;;;;;;;;;;;;;;18.19;32.41;95569.78;5137449;27;1027;-56
2023/10/16 10:59:38;;;;;;;;;;;;;;;18.31;31.85;95565.50;5136996;27;1044;-55
2023/10/16 11:02:52;;;;;;;;;;;;;;;18.25;32.46;95560.84;5137044;27;1052;-55
2023/10/16 11:04:58;;;;;;;;;;;;;;;18.32;32.35;95556.31;5136470;27;1645;-56
2023/10/16 11:07:29;;;;;;;;;;;;;;;18.22;31.39;95563.97;5136775;27;2099;-55
2023/10/16 11:09:59;;;;;;;;;;;;;;;18.07;32.46;95556.78;5136845;27;1043;-56
2023/10/16 11:12:25;;;;;;;;;;;;;;;18.24;32.15;95562.72;5136800;27;1076;-55
2023/10/16 11:14:53;;;;;;;;;;;;;;;18.16;31.80;95567.47;5136192;27;1090;-56
2023/10/16 11:17:30;;;;;;;;;;;;;;;18.12;31.25;95558.91;5136648;27;1032;-56
2023/10/16 11:19:56;;;;;;;;;;;;;;;18.23;32.07;95557.50;5137228;27;952;-56
2023/10/16 11:22:27;;;;;;;;;;;;;;;18.25;31.04;95560.84;5136471;27;1107;-56
2023/10/16 11:24:54;;;;;;;;;;;;;;;18.08;31.39;95558.47;5136795;27;1134;-56
2023/10/16 11:27:20;;;;;;;;;;;;;;;17.94;30.45;95548.59;5136187;27;1913;-56
2023/10/16 11:29:47;;;;;;;;;;;;;;;17.92;30.97;95537.13;5136421;27;1051;-56
2023/10/16 11:32:14;;;;;;;;;;;;;;;17.96;31.09;95538.41;5136643;27;991;-56
2023/10/16 11:34:50;;;;;;;;;;;;;;;18.02;31.48;95537.63;5136358;27;1072;-55
2023/10/16 11:37:19;;;;;;;;;;;;;;;17.90;31.31;95537.31;5136286;27;1088;-56
2023/10/16 11:39:47;;;;;;;;;;;;;;;17.79;31.40;95532.41;5136433;27;1069;-56
2023/10/16 11:42:14;;;;;;;;;;;;;;;17.94;31.38;95530.47;5136306;27;1098;-56
2023/10/16 11:44:41;;;;;;;;;;;;;;;18.06;31.21;95525.38;5118327;27;952;-55
2023/10/16 11:47:18;;;;;;;;;;;;;;;17.85;30.90;95520.88;5136154;27;1992;-55
2023/10/16 11:49:53;;;;;;;;;;;;;;;17.97;30.89;95521.16;5136380;27;1157;-56
2023/10/16 11:52:19;;;;;;;;;;;;;;;18.01;30.86;95514.31;5136199;27;1039;-55
2023/10/16 11:54:52;;;;;;;;;;;;;;;17.99;30.92;95515.53;5136275;27;1024;-56
2023/10/16 11:57:18;;;;;;;;;;;;;;;17.98;30.33;95517.41;5136024;27;1032;-56
2023/10/16 11:59:45;;;;;;;;;;;;;;;17.93;30.54;95518.00;5136190;27;1019;-56
2023/10/16 12:02:11;;;;;;;;;;;;;;;18.00;30.14;95512.63;5136045;27;969;-56
2023/10/16 12:04:37;;;;;;;;;;;;;;;18.13;29.90;95512.69;5135776;27;1032;-56
2023/10/16 12:07:03;;;;;;;;;;;;;;;18.02;29.74;95513.28;5135849;27;1906;-56
2023/10/16 12:09:37;;;;;;;;;;;;;;;17.84;29.63;95511.06;5135814;27;941;-56
2023/10/16 12:12:06;;;;;;;;;;;;;;;17.86;29.60;95513.56;5135735;27;1099;-56
2023/10/16 12:14:38;;;;;;;;;;;;;;;18.03;29.05;95512.22;5135757;27;1051;-56
2023/10/16 12:17:11;;;;;;;;;;;;;;;18.16;28.77;95503.38;5135787;27;957;-56
2023/10/16 12:19:37;;;;;;;;;;;;;;;17.89;29.22;95510.47;5135509;27;1012;-54
2023/10/16 12:22:04;;;;;;;;;;;;;;;17.93;30.12;95509.06;5135326;27;1052;-54
2023/10/16 12:24:29;;;;;;;;;;;;;;;18.09;28.95;95502.47;5135416;27;1867;-55
2023/10/16 12:26:56;;;;;;;;;;;;;;;18.14;28.90;95513.56;5134331;27;1983;-56
2023/10/16 12:29:22;;;;;;;;;;;;;;;18.06;29.45;95503.72;5135557;27;1021;-55
2023/10/16 12:31:48;;;;;;;;;;;;;;;17.98;29.69;95503.88;5135535;27;1051;-56
2023/10/16 12:34:16;;;;;;;;;;;;;;;17.99;29.61;95510.13;5135435;27;1310;-55
2023/10/16 12:36:43;;;;;;;;;;;;;;;17.90;28.95;95506.75;5135366;27;969;-56
2023/10/16 12:39:24;;;;;;;;;;;;;;;17.84;28.57;95508.38;5135167;27;1059;-56
2023/10/16 12:41:59;;;;;;;;;;;;;;;17.77;28.56;95502.03;5135019;27;964;-55
2023/10/16 12:44:26;;;;;;;;;;;;;;;17.79;28.88;95501.84;5135258;27;973;-55
2023/10/16 12:46:56;;;;;;;;;;;;;;;17.67;28.74;95496.16;5134988;27;1897;-55
2023/10/16 12:49:22;;;;;;;;;;;;;;;17.69;29.02;95499.50;5131012;27;1192;-56
2023/10/16 12:59:37;;;;;;;;;;;;;;;16.65;29.01;95508.03;5125901;27;2583;-56
2023/10/16 13:02:04;;;;;;;;;;;;;;;16.80;29.79;95500.72;5131584;27;1267;-55
2023/10/16 13:04:33;;;;;;;;;;;;;;;17.01;29.22;95502.63;5131527;27;1227;-55
2023/10/16 13:07:00;;;;;;;;;;;;;;;17.20;28.92;95494.94;5131614;27;1160;-56
2023/10/16 13:09:26;;;;;;;;;;;;;;;17.20;29.87;95501.16;5131472;27;1040;-55
2023/10/16 13:11:52;;;;;;;;;;;;;;;17.36;29.60;95494.66;5131653;27;1873;-56
2023/10/16 13:14:18;;;;;;;;;;;;;;;17.45;29.60;95485.34;5131650;27;999;-56
2023/10/16 13:16:53;;;;;;;;;;;;;;;17.49;29.69;95488.50;5131385;27;1292;-56
2023/10/16 13:19:19;;;;;;;;;;;;;;;17.42;29.10;95482.25;5131360;27;1918;-55
2023/10/16 13:21:51;;;;;;;;;;;;;;;17.37;29.40;95482.81;5131635;27;953;-55
2023/10/16 13:24:20;;;;;;;;;;;;;;;17.45;28.76;95492.63;5131691;27;972;-56
2023/10/16 13:26:52;;;;;;;;;;;;;;;17.34;28.89;95494.84;5131527;27;1024;-55
2023/10/16 13:29:19;;;;;;;;;;;;;;;17.38;29.62;95492.59;5131338;27;1648;-55
2023/10/16 13:31:45;;;;;;;;;;;;;;;17.33;29.44;95495.88;5131155;27;1062;-55
2023/10/16 13:34:13;;;;;;;;;;;;;;;17.36;29.22;95491.97;5131112;27;1172;-55
2023/10/16 13:36:42;;;;;;;;;;;;;;;17.40;28.79;95487.00;5131085;27;1036;-55
2023/10/16 13:39:11;;;;;;;;;;;;;;;17.40;29.01;95495.13;5131315;27;1997;-56
2023/10/16 13:41:58;;;;;;;;;;;;;;;17.37;29.73;95480.09;5131268;27;979;-56
2023/10/16 13:44:24;;;;;;;;;;;;;;;17.36;29.41;95481.97;5130987;27;2133;-55
2023/10/16 13:46:51;;;;;;;;;;;;;;;17.24;30.16;95472.72;5131231;27;1023;-55
2023/10/16 13:49:18;;;;;;;;;;;;;;;17.24;30.36;95472.72;5130891;27;1881;-55
2023/10/16 13:51:45;;;;;;;;;;;;;;;17.27;29.96;95480.44;5130787;27;1031;-54
2023/10/16 13:54:12;;;;;;;;;;;;;;;17.17;30.26;95474.53;5130770;27;1074;-56
2023/10/16 13:56:41;;;;;;;;;;;;;;;17.14;29.79;95474.91;5130990;27;987;-56
2023/10/16 13:59:08;;;;;;;;;;;;;;;17.04;30.28;95471.72;5130513;27;1917;-56
2023/10/16 14:01:41;;;;;;;;;;;;;;;16.94;30.55;95477.41;5130867;27;987;-56
2023/10/16 14:04:16;;;;;;;;;;;;;;;17.01;30.32;95470.22;5130968;27;987;-56
2023/10/16 14:06:52;;;;;;;;;;;;;;;17.06;30.02;95477.75;5130616;27;1165;-56
2023/10/16 14:09:27;;;;;;;;;;;;;;;16.99;30.13;95469.59;5126621;27;1067;-56
2023/10/16 14:11:53;;;;;;;;;;;;;;;16.88;30.64;95468.22;5116882;28;1954;-55
2023/10/16 14:14:20;;;;;;;;;;;;;;;16.71;30.62;95474.88;5116805;28;1315;-56
2023/10/16 14:16:51;;;;;;;;;;;;;;;16.67;30.58;95465.50;5116776;28;1003;-56
2023/10/16 14:19:22;;;;;;;;;;;;;;;16.61;30.66;95463.56;5116858;28;1991;-55
2023/10/16 14:22:01;;;;;;;;;;;;;;;16.69;30.58;95477.75;5116630;28;1036;-56
2023/10/16 14:24:27;;;;;;;;;;;;;;;16.72;30.15;95471.97;5116815;28;968;-56
2023/10/16 14:26:55;;;;;;;;;;;;;;;16.70;31.38;95470.53;5116823;28;1193;-56
2023/10/16 14:29:22;;;;;;;;;;;;;;;16.72;30.79;95468.47;5116688;28;1055;-56
2023/10/16 14:31:50;;;;;;;;;;;;;;;16.61;30.62;95467.09;5116614;28;1047;-55
2023/10/16 14:34:22;;;;;;;;;;;;;;;16.55;31.48;95479.47;5116645;28;976;-55
2023/10/16 14:36:49;;;;;;;;;;;;;;;16.53;30.67;95467.22;5116558;28;1039;-55
2023/10/16 14:39:15;;;;;;;;;;;;;;;16.50;31.70;95473.81;5116432;28;1909;-56
2023/10/16 14:41:42;;;;;;;;;;;;;;;16.34;32.26;95479.44;5116080;28;1170;-57
2023/10/16 14:44:09;;;;;;;;;;;;;;;16.34;31.68;95474.06;5116419;28;972;-56
2023/10/16 14:46:36;;;;;;;;;;;;;;;16.28;31.90;95474.81;5116364;28;968;-57
2023/10/16 14:49:08;;;;;;;;;;;;;;;16.34;31.82;95480.28;5116464;28;984;-59
2023/10/16 14:51:38;;;;;;;;;;;;;;;16.30;32.35;95473.59;5115987;28;1088;-56
2023/10/16 14:54:10;;;;;;;;;;;;;;;16.23;32.60;95469.13;5116186;28;1071;-56
2023/10/16 14:56:37;;;;;;;;;;;;;;;16.11;32.66;95477.72;5115846;27;1127;-56
2023/10/16 14:59:11;;;;;;;;;;;;;;;16.05;32.93;95472.22;5115746;28;1917;-56
2023/10/16 15:01:37;;;;;;;;;;;;;;;15.90;33.65;95474.94;5115799;28;973;-56
2023/10/16 15:04:09;;;;;;;;;;;;;;;15.78;34.43;95471.84;5115540;28;1075;-56
2023/10/16 15:06:35;;;;;;;;;;;;;;;15.47;36.29;95470.13;5114209;28;1191;-57
2023/10/16 15:09:09;;;;;;;;;;;;;;;15.20;36.59;95466.19;5115192;28;1065;-57
2023/10/16 15:11:35;;;;;;;;;;;;;;;14.98;37.06;95460.63;5115377;28;1091;-57
2023/10/16 15:14:01;;;;;;;;;;;;;;;14.94;38.03;95463.88;5115482;28;971;-56
2023/10/16 15:16:27;;;;;;;;;;;;;;;14.85;38.42;95457.69;5115283;28;1039;-57
2023/10/16 15:18:53;;;;;;;;;;;;;;;15.04;36.38;95467.13;5115569;28;1994;-57
2023/10/16 15:21:19;;;;;;;;;;;;;;;14.89;38.31;95468.94;5114287;28;1080;-57
2023/10/16 15:23:45;;;;;;;;;;;;;;;14.49;39.29;95462.78;5115462;28;1054;-57
2023/10/16 15:26:11;;;;;;;;;;;;;;;14.13;41.39;95457.94;5115351;28;964;-57